Time;durP1;ratioP1;P1;durP2;ratioP2;P2;SDS_P1;SDS_P2;PMS_P1;PMS_P2;Temp;Humidity;BMP_temperature;BMP_pressure;BME280_temperature;BME280_humidity;BME280_pressure;Samples;Min_cycle;Max_cycle;Signal;HPM_P1;HPM_P2
2022/10/12 00:02:23;;;;;;;9.68;4.55;;;;;;;;;;4938857;29;20047;-85
2022/10/12 00:04:49;;;;;;;8.60;4.22;;;;;;;;;;4940003;29;20100;-86
2022/10/12 00:07:14;;;;;;;11.25;3.97;;;;;;;;;;4940366;29;20099;-85
2022/10/12 00:09:40;;;;;;;12.30;5.38;;;;;;;;;;4939892;29;20038;-85
2022/10/12 00:12:05;;;;;;;21.13;6.85;;;;;;;;;;4939652;29;20087;-85
2022/10/12 00:14:35;;;;;;;23.15;5.80;;;;;;;;;;4940123;29;20102;-85
2022/10/12 00:17:01;;;;;;;16.40;5.70;;;;;;;;;;4940444;29;20436;-86
2022/10/12 00:19:27;;;;;;;17.05;6.05;;;;;;;;;;4940812;29;20047;-84
2022/10/12 00:21:52;;;;;;;24.77;7.38;;;;;;;;;;4939860;29;20035;-85
2022/10/12 00:24:18;;;;;;;27.55;8.25;;;;;;;;;;4940230;29;20417;-85
2022/10/12 00:26:43;;;;;;;24.17;8.82;;;;;;;;;;4940509;29;20035;-85
2022/10/12 00:29:09;;;;;;;31.85;9.00;;;;;;;;;;4939784;29;20031;-85
2022/10/12 00:31:34;;;;;;;19.13;7.55;;;;;;;;;;4939927;29;20062;-85
2022/10/12 00:34:02;;;;;;;21.63;9.32;;;;;;;;;;4939677;29;20036;-85
2022/10/12 00:36:31;;;;;;;28.15;10.02;;;;;;;;;;4938166;29;20051;-85
2022/10/12 00:38:58;;;;;;;24.00;9.73;;;;;;;;;;4939858;29;20500;-85
2022/10/12 00:41:26;;;;;;;36.13;10.48;;;;;;;;;;4922621;29;20035;-85
2022/10/12 00:43:53;;;;;;;24.15;9.70;;;;;;;;;;4921173;29;20031;-85
2022/10/12 00:46:42;;;;;;;25.10;10.32;;;;;;;;;;4920551;29;20048;-85
2022/10/12 00:49:22;;;;;;;27.15;9.63;;;;;;;;;;4904158;29;20036;-85
2022/10/12 00:52:01;;;;;;;22.83;9.40;;;;;;;;;;4920757;29;20040;-85
2022/10/12 00:54:31;;;;;;;26.00;9.65;;;;;;;;;;4920733;29;20087;-85
2022/10/12 00:56:58;;;;;;;23.48;9.60;;;;;;;;;;4919528;29;20136;-85
2022/10/12 00:59:30;;;;;;;22.45;9.20;;;;;;;;;;4919198;29;20039;-85
2022/10/12 01:01:56;;;;;;;41.47;10.80;;;;;;;;;;4920623;29;20056;-86
2022/10/12 01:04:22;;;;;;;23.60;10.88;;;;;;;;;;4919387;29;20039;-84
2022/10/12 01:06:49;;;;;;;22.65;10.32;;;;;;;;;;4919532;29;20056;-85
2022/10/12 01:09:14;;;;;;;24.08;9.95;;;;;;;;;;4919642;29;20047;-85
2022/10/12 01:11:40;;;;;;;23.48;12.70;;;;;;;;;;4920356;29;20450;-85
2022/10/12 01:14:05;;;;;;;29.33;13.40;;;;;;;;;;4920090;29;20036;-85
2022/10/12 01:16:37;;;;;;;27.17;12.65;;;;;;;;;;4920859;29;20120;-85
2022/10/12 01:19:30;;;;;;;27.70;12.80;;;;;;;;;;4920754;29;20074;-85
2022/10/12 01:22:08;;;;;;;24.00;13.15;;;;;;;;;;4919326;29;20047;-85
2022/10/12 01:24:43;;;;;;;27.58;13.35;;;;;;;;;;4920238;29;20486;-85
2022/10/12 01:27:18;;;;;;;28.23;14.20;;;;;;;;;;4920780;29;20115;-85
2022/10/12 01:30:21;;;;;;;22.63;12.52;;;;;;;;;;4920862;29;20489;-85
2022/10/12 01:33:07;;;;;;;24.25;12.60;;;;;;;;;;4913678;29;20044;-85
2022/10/12 01:36:01;;;;;;;29.88;13.73;;;;;;;;;;4920432;29;20036;-85
2022/10/12 01:38:37;;;;;;;29.75;12.23;;;;;;;;;;4919472;29;20054;-85
2022/10/12 01:41:25;;;;;;;28.75;10.63;;;;;;;;;;4921180;29;20509;-85
2022/10/12 01:43:51;;;;;;;23.48;10.90;;;;;;;;;;4922094;29;20036;-85
2022/10/12 01:46:17;;;;;;;33.90;12.63;;;;;;;;;;4906602;29;20490;-85
2022/10/12 01:48:45;;;;;;;31.00;12.32;;;;;;;;;;4923377;29;20031;-87
2022/10/12 01:51:15;;;;;;;28.50;12.98;;;;;;;;;;4922950;29;20032;-86
2022/10/12 01:53:48;;;;;;;25.00;12.90;;;;;;;;;;4923523;29;20387;-86
2022/10/12 01:56:19;;;;;;;27.50;13.43;;;;;;;;;;4923187;29;20055;-86
2022/10/12 01:59:11;;;;;;;28.73;12.40;;;;;;;;;;4923059;29;20036;-86
2022/10/12 02:01:53;;;;;;;27.83;13.70;;;;;;;;;;4921393;29;20032;-86
2022/10/12 02:04:45;;;;;;;35.25;13.55;;;;;;;;;;4922601;29;20036;-86
2022/10/12 02:07:19;;;;;;;25.50;12.60;;;;;;;;;;4923674;29;20044;-86
2022/10/12 02:09:44;;;;;;;;;;;;;;;;;;4922829;29;20453;-84
2022/10/12 02:12:16;;;;;;;21.38;11.70;;;;;;;;;;4922639;29;19914;-86
2022/10/12 02:14:49;;;;;;;22.50;12.52;;;;;;;;;;4921901;29;20040;-86
2022/10/12 02:17:17;;;;;;;21.77;12.48;;;;;;;;;;4923142;29;20047;-85
2022/10/12 02:19:55;;;;;;;20.80;12.50;;;;;;;;;;4923124;29;20063;-85
2022/10/12 02:22:24;;;;;;;18.88;10.95;;;;;;;;;;4921513;29;20560;-83
2022/10/12 02:24:52;;;;;;;17.88;11.00;;;;;;;;;;4922183;29;20032;-85
2022/10/12 02:27:19;;;;;;;17.77;10.60;;;;;;;;;;4923849;29;20031;-85
2022/10/12 02:29:46;;;;;;;16.40;9.98;;;;;;;;;;4922487;29;20060;-85
2022/10/12 02:32:33;;;;;;;13.45;9.15;;;;;;;;;;4923019;29;20055;-85
2022/10/12 02:35:06;;;;;;;13.77;8.93;;;;;;;;;;4922525;29;20058;-85
2022/10/12 02:37:55;;;;;;;13.05;8.95;;;;;;;;;;4923173;29;20486;-85
2022/10/12 02:40:25;;;;;;;11.45;8.45;;;;;;;;;;4922708;29;20099;-85
2022/10/12 02:42:56;;;;;;;8.93;7.03;;;;;;;;;;4923227;29;20040;-85
2022/10/12 02:45:23;;;;;;;11.43;7.97;;;;;;;;;;4922358;29;20038;-85
2022/10/12 02:47:51;;;;;;;13.80;7.68;;;;;;;;;;4922608;29;20032;-85
2022/10/12 02:50:19;;;;;;;12.18;8.07;;;;;;;;;;4921547;29;20044;-85
2022/10/12 02:52:46;;;;;;;11.60;7.78;;;;;;;;;;4922583;29;20032;-86
2022/10/12 02:55:12;;;;;;;9.48;7.28;;;;;;;;;;4922432;29;20036;-85
2022/10/12 02:57:38;;;;;;;10.18;7.43;;;;;;;;;;4920508;29;20036;-85
2022/10/12 03:00:04;;;;;;;12.00;7.70;;;;;;;;;;4922563;29;20028;-85
2022/10/12 03:02:29;;;;;;;10.52;7.15;;;;;;;;;;4921676;29;20544;-85
2022/10/12 03:04:55;;;;;;;10.32;7.07;;;;;;;;;;4922001;29;20046;-85
2022/10/12 03:07:20;;;;;;;11.38;7.25;;;;;;;;;;4905357;29;20032;-85
2022/10/12 03:09:45;;;;;;;11.30;7.60;;;;;;;;;;4925500;29;20060;-85
2022/10/12 03:12:11;;;;;;;10.93;7.85;;;;;;;;;;4927917;29;20521;-85
2022/10/12 03:14:36;;;;;;;10.57;7.45;;;;;;;;;;4926803;29;20067;-85
2022/10/12 03:17:03;;;;;;;12.05;7.85;;;;;;;;;;4925856;29;20040;-85
2022/10/12 03:19:29;;;;;;;9.02;6.80;;;;;;;;;;4927239;29;20044;-85
2022/10/12 03:21:55;;;;;;;12.02;6.80;;;;;;;;;;4927543;29;20043;-85
2022/10/12 03:24:20;;;;;;;8.98;6.47;;;;;;;;;;4924734;29;20038;-85
2022/10/12 03:26:46;;;;;;;7.40;5.65;;;;;;;;;;4927543;29;20056;-85
2022/10/12 03:29:12;;;;;;;9.18;5.78;;;;;;;;;;4925950;29;20036;-85
2022/10/12 03:31:37;;;;;;;10.23;6.07;;;;;;;;;;4926272;29;20067;-85
2022/10/12 03:34:03;;;;;;;8.18;6.05;;;;;;;;;;4921417;29;20386;-85
2022/10/12 03:36:29;;;;;;;10.57;5.72;;;;;;;;;;4921476;29;20115;-85
2022/10/12 03:38:55;;;;;;;9.00;6.03;;;;;;;;;;4921347;29;20046;-85
2022/10/12 03:41:21;;;;;;;7.75;5.63;;;;;;;;;;4921959;29;20040;-85
2022/10/12 03:43:46;;;;;;;12.20;6.50;;;;;;;;;;4922381;29;20040;-85
2022/10/12 03:46:12;;;;;;;9.65;5.55;;;;;;;;;;4922511;29;20032;-85
2022/10/12 03:48:38;;;;;;;8.90;5.20;;;;;;;;;;4921687;29;20454;-85
2022/10/12 03:51:03;;;;;;;9.10;5.82;;;;;;;;;;4921684;29;20600;-85
2022/10/12 03:53:30;;;;;;;10.40;5.30;;;;;;;;;;4921464;29;20036;-86
2022/10/12 03:55:55;;;;;;;9.00;5.25;;;;;;;;;;4921562;29;20035;-85
2022/10/12 03:58:20;;;;;;;8.27;5.13;;;;;;;;;;4920574;29;20405;-85
2022/10/12 04:00:46;;;;;;;11.15;5.53;;;;;;;;;;4921781;29;20040;-87
2022/10/12 04:03:11;;;;;;;8.25;5.50;;;;;;;;;;4920771;29;20047;-86
2022/10/12 04:05:38;;;;;;;8.32;5.20;;;;;;;;;;4919821;29;20039;-86
2022/10/12 04:08:04;;;;;;;8.65;5.93;;;;;;;;;;4920112;29;20047;-86
2022/10/12 04:10:30;;;;;;;7.45;4.93;;;;;;;;;;4921567;29;20035;-86
2022/10/12 04:12:56;;;;;;;5.60;4.70;;;;;;;;;;4921020;29;20119;-85
2022/10/12 04:15:21;;;;;;;11.20;5.20;;;;;;;;;;4919463;29;20044;-87
2022/10/12 04:17:47;;;;;;;7.70;5.22;;;;;;;;;;4921034;29;20044;-86
2022/10/12 04:20:12;;;;;;;8.35;6.30;;;;;;;;;;4921618;29;20032;-86
2022/10/12 04:22:39;;;;;;;9.55;5.55;;;;;;;;;;4920671;29;20108;-85
2022/10/12 04:25:05;;;;;;;7.85;5.85;;;;;;;;;;4920765;29;20036;-85
2022/10/12 04:27:30;;;;;;;12.52;6.43;;;;;;;;;;4920823;29;20036;-86
2022/10/12 04:29:56;;;;;;;7.13;4.85;;;;;;;;;;4921218;29;20047;-85
2022/10/12 04:32:21;;;;;;;7.28;4.72;;;;;;;;;;4919400;29;20083;-85
2022/10/12 04:34:47;;;;;;;7.35;5.30;;;;;;;;;;4919661;29;20095;-85
2022/10/12 04:37:12;;;;;;;10.65;5.22;;;;;;;;;;4919044;29;20032;-86
2022/10/12 04:39:38;;;;;;;8.43;4.90;;;;;;;;;;4920280;29;20516;-85
2022/10/12 04:42:05;;;;;;;6.80;4.20;;;;;;;;;;4920794;29;20062;-85
2022/10/12 04:44:31;;;;;;;7.55;4.13;;;;;;;;;;4920863;29;20040;-86
2022/10/12 04:46:56;;;;;;;9.60;3.75;;;;;;;;;;4920021;29;20136;-85
2022/10/12 04:49:22;;;;;;;12.45;7.00;;;;;;;;;;4920359;29;20083;-85
2022/10/12 04:51:47;;;;;;;11.20;6.10;;;;;;;;;;4920634;29;20662;-86
2022/10/12 04:54:13;;;;;;;5.82;4.20;;;;;;;;;;4903545;29;20036;-86
2022/10/12 04:56:38;;;;;;;12.45;5.20;;;;;;;;;;4920441;29;20104;-84
2022/10/12 04:59:04;;;;;;;6.47;4.28;;;;;;;;;;4920845;29;20047;-86
2022/10/12 05:01:29;;;;;;;10.20;4.25;;;;;;;;;;4920493;29;20044;-85
2022/10/12 05:03:55;;;;;;;7.80;3.95;;;;;;;;;;4918893;29;20077;-84
2022/10/12 05:06:20;;;;;;;13.02;5.05;;;;;;;;;;4920832;29;20036;-86
2022/10/12 05:08:45;;;;;;;7.07;4.40;;;;;;;;;;4920581;29;20036;-85
2022/10/12 05:11:11;;;;;;;8.80;4.30;;;;;;;;;;4921084;29;20043;-86
2022/10/12 05:13:37;;;;;;;9.68;5.38;;;;;;;;;;4920167;29;20036;-85
2022/10/12 05:16:02;;;;;;;8.65;4.50;;;;;;;;;;4921795;29;20047;-85
2022/10/12 05:18:28;;;;;;;8.65;4.55;;;;;;;;;;4923659;29;20036;-84
2022/10/12 05:20:53;;;;;;;11.30;4.50;;;;;;;;;;4924500;29;20066;-85
2022/10/12 05:23:19;;;;;;;13.00;4.40;;;;;;;;;;4922736;29;20040;-85
2022/10/12 05:25:44;;;;;;;9.05;4.03;;;;;;;;;;4924056;29;20028;-85
2022/10/12 05:28:10;;;;;;;11.77;5.00;;;;;;;;;;4922385;29;20035;-85
2022/10/12 05:30:35;;;;;;;11.57;5.90;;;;;;;;;;4923866;29;20101;-85
2022/10/12 05:33:01;;;;;;;10.38;6.15;;;;;;;;;;4923931;29;20032;-85
2022/10/12 05:35:26;;;;;;;10.95;7.00;;;;;;;;;;4923817;29;20043;-85
2022/10/12 05:37:52;;;;;;;13.27;5.25;;;;;;;;;;4922867;29;20394;-85
2022/10/12 05:40:17;;;;;;;8.32;4.40;;;;;;;;;;4922782;29;20540;-85
2022/10/12 05:42:44;;;;;;;7.80;4.93;;;;;;;;;;4923207;29;20052;-86
2022/10/12 05:45:10;;;;;;;8.68;3.60;;;;;;;;;;4923358;29;20044;-85
2022/10/12 05:47:36;;;;;;;7.93;3.30;;;;;;;;;;4923605;29;20067;-85
2022/10/12 05:50:02;;;;;;;6.47;3.17;;;;;;;;;;4923764;29;20052;-85
2022/10/12 05:52:27;;;;;;;8.77;3.50;;;;;;;;;;4921960;29;20501;-86
2022/10/12 05:54:53;;;;;;;10.43;4.40;;;;;;;;;;4922934;29;20047;-86
2022/10/12 05:57:18;;;;;;;9.15;4.53;;;;;;;;;;4923665;29;20051;-85
2022/10/12 05:59:44;;;;;;;8.75;3.70;;;;;;;;;;4923194;29;20040;-85
2022/10/12 06:02:14;;;;;;;12.75;3.35;;;;;;;;;;4922158;29;20040;-85
2022/10/12 06:04:39;;;;;;;8.73;3.50;;;;;;;;;;4906357;29;20044;-84
2022/10/12 06:07:05;;;;;;;9.25;4.20;;;;;;;;;;4923513;29;20054;-85
2022/10/12 06:09:31;;;;;;;12.75;5.45;;;;;;;;;;4906270;29;20039;-85
2022/10/12 06:11:57;;;;;;;9.20;5.18;;;;;;;;;;4922927;29;20036;-85
2022/10/12 06:14:22;;;;;;;8.18;3.90;;;;;;;;;;4922775;29;20040;-85
2022/10/12 06:16:48;;;;;;;12.35;5.40;;;;;;;;;;4922045;29;20036;-85
2022/10/12 06:19:13;;;;;;;8.65;4.60;;;;;;;;;;4923514;29;20063;-85
2022/10/12 06:21:39;;;;;;;16.02;8.50;;;;;;;;;;4922504;29;20437;-84
2022/10/12 06:24:04;;;;;;;15.93;9.38;;;;;;;;;;4921843;29;20127;-86
2022/10/12 06:26:30;;;;;;;11.15;6.85;;;;;;;;;;4923641;29;20127;-85
2022/10/12 06:28:55;;;;;;;9.02;4.40;;;;;;;;;;4924533;29;20099;-86
2022/10/12 06:31:21;;;;;;;10.98;4.50;;;;;;;;;;4924756;29;20028;-86
2022/10/12 06:33:49;;;;;;;10.38;4.20;;;;;;;;;;4922394;29;20180;-86
2022/10/12 06:36:14;;;;;;;9.60;5.60;;;;;;;;;;4922422;29;20043;-87
2022/10/12 06:38:39;;;;;;;13.85;5.25;;;;;;;;;;4925821;29;20032;-86
2022/10/12 06:41:05;;;;;;;12.95;6.05;;;;;;;;;;4936655;29;20040;-86
2022/10/12 06:43:30;;;;;;;12.25;3.83;;;;;;;;;;4944360;29;20039;-86
2022/10/12 06:46:00;;;;;;;18.63;7.57;;;;;;;;;;4943720;29;20032;-87
2022/10/12 06:48:26;;;;;;;16.55;7.43;;;;;;;;;;4942580;29;20066;-86
2022/10/12 06:50:52;;;;;;;8.63;4.50;;;;;;;;;;4941647;29;20028;-85
2022/10/12 06:53:18;;;;;;;8.85;5.10;;;;;;;;;;4940381;29;20075;-85
2022/10/12 06:55:44;;;;;;;9.10;3.67;;;;;;;;;;4942234;29;20102;-85
2022/10/12 06:58:10;;;;;;;7.28;3.58;;;;;;;;;;4940661;29;20035;-86
2022/10/12 07:00:35;;;;;;;8.15;3.88;;;;;;;;;;4940700;29;20043;-86
2022/10/12 07:03:01;;;;;;;8.85;3.72;;;;;;;;;;4942651;29;20028;-86
2022/10/12 07:05:27;;;;;;;6.45;3.72;;;;;;;;;;4944112;29;20042;-86
2022/10/12 07:07:53;;;;;;;10.77;3.78;;;;;;;;;;4942641;29;20122;-86
2022/10/12 07:10:18;;;;;;;7.57;3.72;;;;;;;;;;4942104;29;20028;-86
2022/10/12 07:12:44;;;;;;;9.60;4.07;;;;;;;;;;4927520;29;20032;-87
2022/10/12 07:15:09;;;;;;;7.57;3.55;;;;;;;;;;4923087;29;20032;-84
2022/10/12 07:17:35;;;;;;;13.38;3.70;;;;;;;;;;4921484;29;20036;-85
2022/10/12 07:20:00;;;;;;;9.43;4.20;;;;;;;;;;4929538;29;20072;-82
2022/10/12 07:22:26;;;;;;;11.75;4.70;;;;;;;;;;4931241;29;20040;-83
2022/10/12 07:24:52;;;;;;;10.07;4.10;;;;;;;;;;4933172;29;20035;-83
2022/10/12 07:27:17;;;;;;;8.45;4.05;;;;;;;;;;4936826;29;20036;-86
2022/10/12 07:29:42;;;;;;;7.18;3.63;;;;;;;;;;4935146;29;20468;-85
2022/10/12 07:32:08;;;;;;;9.07;3.30;;;;;;;;;;4937978;29;20031;-83
2022/10/12 07:34:33;;;;;;;11.60;3.22;;;;;;;;;;4932788;29;20095;-86
2022/10/12 07:36:59;;;;;;;7.32;3.25;;;;;;;;;;4934842;29;20172;-87
2022/10/12 07:39:25;;;;;;;11.25;3.08;;;;;;;;;;4921311;29;20036;-86
2022/10/12 07:41:51;;;;;;;10.23;2.97;;;;;;;;;;4919745;29;20051;-87
2022/10/12 07:44:18;;;;;;;9.43;3.28;;;;;;;;;;4919543;29;20043;-86
2022/10/12 07:46:44;;;;;;;8.70;3.30;;;;;;;;;;4919374;29;20449;-86
2022/10/12 07:49:14;;;;;;;5.95;3.13;;;;;;;;;;4928360;29;20083;-85
2022/10/12 07:51:41;;;;;;;8.10;2.83;;;;;;;;;;4938952;29;20058;-87
2022/10/12 07:54:06;;;;;;;8.20;3.60;;;;;;;;;;4940091;29;20523;-86
2022/10/12 07:56:32;;;;;;;9.68;4.15;;;;;;;;;;4939574;29;20023;-88
2022/10/12 07:58:58;;;;;;;8.18;3.97;;;;;;;;;;4942463;29;20032;-88
2022/10/12 08:01:26;;;;;;;12.43;5.15;;;;;;;;;;4942128;29;20036;-87
2022/10/12 08:03:53;;;;;;;11.98;4.72;;;;;;;;;;4940532;29;20057;-86
2022/10/12 08:06:21;;;;;;;15.13;5.68;;;;;;;;;;4939859;29;20027;-86
2022/10/12 08:08:47;;;;;;;11.27;5.55;;;;;;;;;;4937540;29;20091;-87
2022/10/12 08:11:13;;;;;;;13.70;5.30;;;;;;;;;;4936404;29;20498;-87
2022/10/12 08:13:39;;;;;;;9.32;4.68;;;;;;;;;;4919895;29;20048;-85
2022/10/12 08:16:08;;;;;;;11.52;4.60;;;;;;;;;;4918236;29;20103;-84
2022/10/12 08:18:33;;;;;;;9.95;5.00;;;;;;;;;;4925827;29;20035;-86
2022/10/12 08:20:59;;;;;;;8.98;4.53;;;;;;;;;;4938010;29;20056;-85
2022/10/12 08:23:24;;;;;;;11.52;4.93;;;;;;;;;;4937885;29;20059;-86
2022/10/12 08:25:52;;;;;;;14.57;5.30;;;;;;;;;;4937752;29;20426;-84
2022/10/12 08:28:18;;;;;;;10.73;5.55;;;;;;;;;;4937335;29;20043;-83
2022/10/12 08:30:43;;;;;;;9.73;5.60;;;;;;;;;;4938678;29;20035;-84
2022/10/12 08:33:09;;;;;;;14.15;5.80;;;;;;;;;;4938433;29;20132;-85
2022/10/12 08:35:38;;;;;;;16.13;7.32;;;;;;;;;;4938097;29;20039;-86
2022/10/12 08:38:03;;;;;;;16.73;6.95;;;;;;;;;;4923118;29;20044;-86
2022/10/12 08:40:31;;;;;;;14.30;6.95;;;;;;;;;;4938688;29;20039;-87
2022/10/12 08:43:15;;;;;;;12.85;6.30;;;;;;;;;;4930462;29;20068;-88
2022/10/12 08:45:58;;;;;;;15.95;6.50;;;;;;;;;;4921746;29;20044;-89
2022/10/12 08:48:33;;;;;;;13.90;7.57;;;;;;;;;;4921283;29;20032;-85
2022/10/12 08:51:03;;;;;;;22.42;7.75;;;;;;;;;;4920971;29;20063;-86
2022/10/12 08:53:39;;;;;;;19.52;6.53;;;;;;;;;;4921150;29;20040;-88
2022/10/12 08:56:05;;;;;;;18.30;7.03;;;;;;;;;;4927920;29;20609;-88
2022/10/12 08:58:37;;;;;;;15.60;7.93;;;;;;;;;;4926724;29;20072;-87
2022/10/12 09:01:35;;;;;;;12.48;6.80;;;;;;;;;;4925245;29;20382;-88
2022/10/12 09:04:16;;;;;;;17.88;8.02;;;;;;;;;;4927999;29;20070;-87
2022/10/12 09:06:47;;;;;;;17.63;9.27;;;;;;;;;;4928189;29;20047;-87
2022/10/12 09:09:44;;;;;;;21.23;10.40;;;;;;;;;;4931492;29;20039;-87
2022/10/12 09:12:31;;;;;;;18.92;9.35;;;;;;;;;;4930534;29;20036;-87
2022/10/12 09:15:04;;;;;;;17.52;9.50;;;;;;;;;;4924267;29;20040;-85
2022/10/12 09:17:39;;;;;;;18.83;10.27;;;;;;;;;;4922460;29;20039;-87
2022/10/12 09:20:05;;;;;;;20.88;9.57;;;;;;;;;;4924159;29;20035;-87
2022/10/12 09:22:33;;;;;;;22.73;10.10;;;;;;;;;;4923846;29;20505;-85
2022/10/12 09:25:01;;;;;;;19.15;10.25;;;;;;;;;;4923916;29;20568;-85
2022/10/12 09:27:30;;;;;;;17.30;9.77;;;;;;;;;;4925256;29;20039;-86
2022/10/12 09:30:00;;;;;;;16.33;10.00;;;;;;;;;;4924369;29;20036;-85
2022/10/12 09:32:40;;;;;;;15.82;8.82;;;;;;;;;;4922612;29;20036;-85
2022/10/12 09:35:09;;;;;;;20.33;10.00;;;;;;;;;;4923380;29;20438;-86
2022/10/12 09:37:35;;;;;;;15.43;9.18;;;;;;;;;;4922185;29;20461;-87
2022/10/12 09:40:01;;;;;;;28.10;9.38;;;;;;;;;;4923668;29;20035;-87
2022/10/12 09:42:26;;;;;;;20.08;9.27;;;;;;;;;;4923406;29;20111;-88
2022/10/12 09:45:11;;;;;;;19.38;9.85;;;;;;;;;;4923776;29;20433;-89
2022/10/12 09:47:36;;;;;;;21.35;9.35;;;;;;;;;;4925917;29;20091;-88
2022/10/12 09:50:06;;;;;;;16.67;9.73;;;;;;;;;;4908550;29;20413;-87
2022/10/12 09:52:35;;;;;;;18.75;9.93;;;;;;;;;;4908737;29;20362;-87
2022/10/12 09:55:06;;;;;;;22.00;10.55;;;;;;;;;;4924607;29;20036;-88
2022/10/12 09:57:35;;;;;;;21.60;10.27;;;;;;;;;;4923877;29;20050;-86
2022/10/12 10:00:07;;;;;;;22.65;9.98;;;;;;;;;;4924175;29;20095;-87
2022/10/12 10:02:47;;;;;;;23.27;10.98;;;;;;;;;;4924002;29;20040;-87
2022/10/12 10:05:23;;;;;;;19.05;11.00;;;;;;;;;;4908200;29;20048;-88
2022/10/12 10:07:49;;;;;;;22.27;10.80;;;;;;;;;;4923515;29;20126;-88
2022/10/12 10:10:23;;;;;;;22.25;11.40;;;;;;;;;;4925184;29;20052;-88
2022/10/12 10:12:52;;;;;;;19.52;10.80;;;;;;;;;;4907771;29;20032;-88
2022/10/12 10:15:26;;;;;;;23.58;10.98;;;;;;;;;;4926270;29;20039;-88
2022/10/12 10:17:59;;;;;;;23.65;11.07;;;;;;;;;;4923019;29;20040;-88
2022/10/12 10:20:27;;;;;;;19.33;9.90;;;;;;;;;;4921970;29;20043;-89
2022/10/12 10:22:53;;;;;;;18.73;10.38;;;;;;;;;;4920847;29;20087;-88
2022/10/12 10:25:21;;;;;;;20.70;9.93;;;;;;;;;;4921028;29;20039;-88
2022/10/12 10:27:49;;;;;;;17.05;9.95;;;;;;;;;;4922167;29;20490;-88
2022/10/12 10:30:14;;;;;;;15.98;9.05;;;;;;;;;;4923483;29;20039;-88
2022/10/12 10:32:41;;;;;;;18.10;8.88;;;;;;;;;;4921214;29;20036;-89
2022/10/12 10:35:12;;;;;;;19.77;9.02;;;;;;;;;;4920417;29;20076;-87
2022/10/12 10:37:54;;;;;;;18.35;9.80;;;;;;;;;;4905447;29;20040;-88
2022/10/12 10:40:28;;;;;;;17.13;9.00;;;;;;;;;;4922557;29;20035;-88
2022/10/12 10:43:05;;;;;;;16.50;8.70;;;;;;;;;;4920400;29;20048;-89
2022/10/12 10:46:03;;;;;;;16.95;8.52;;;;;;;;;;4924199;29;20413;-88
2022/10/12 10:48:47;;;;;;;18.33;9.27;;;;;;;;;;4925616;29;20576;-89
2022/10/12 10:51:13;;;;;;;19.48;8.65;;;;;;;;;;4931863;29;20134;-88
2022/10/12 10:53:45;;;;;;;14.30;8.90;;;;;;;;;;4942896;29;20060;-87
2022/10/12 10:56:20;;;;;;;16.17;8.18;;;;;;;;;;4941156;29;20032;-89
2022/10/12 10:58:54;;;;;;;19.63;9.27;;;;;;;;;;4939652;29;20036;-88
2022/10/12 11:01:25;;;;;;;16.17;8.52;;;;;;;;;;4942268;29;20043;-88
2022/10/12 11:04:00;;;;;;;17.17;8.75;;;;;;;;;;4943006;29;20092;-88
2022/10/12 11:06:38;;;;;;;17.42;8.43;;;;;;;;;;4942640;29;20036;-89
2022/10/12 11:09:28;;;;;;;20.45;8.05;;;;;;;;;;4942300;29;20039;-89
2022/10/12 11:12:01;;;;;;;17.65;7.78;;;;;;;;;;4936045;29;20051;-88
2022/10/12 11:14:40;;;;;;;16.73;7.75;;;;;;;;;;4941712;29;20374;-88
2022/10/12 11:17:11;;;;;;;17.27;8.55;;;;;;;;;;4941963;29;20110;-88
2022/10/12 11:19:51;;;;;;;15.93;8.98;;;;;;;;;;4941602;29;20039;-88
2022/10/12 11:23:00;;;;;;;18.77;8.80;;;;;;;;;;4941937;29;20392;-88
2022/10/12 11:25:40;;;;;;;14.68;8.73;;;;;;;;;;4928222;29;20071;-88
2022/10/12 11:28:06;;;;;;;14.95;7.70;;;;;;;;;;4942799;29;20038;-88
2022/10/12 11:30:59;;;;;;;17.23;8.18;;;;;;;;;;4941123;29;20035;-88
2022/10/12 11:33:28;;;;;;;15.27;7.78;;;;;;;;;;4940471;29;20043;-88
2022/10/12 11:35:57;;;;;;;14.90;7.45;;;;;;;;;;4941616;29;20102;-88
2022/10/12 11:38:41;;;;;;;17.70;7.30;;;;;;;;;;4940684;29;20035;-89
2022/10/12 11:41:18;;;;;;;14.23;7.57;;;;;;;;;;4941271;29;20044;-87
2022/10/12 11:43:56;;;;;;;22.08;8.48;;;;;;;;;;4941008;29;20055;-88
2022/10/12 11:46:35;;;;;;;17.90;7.63;;;;;;;;;;4940841;29;20042;-87
2022/10/12 11:49:30;;;;;;;13.93;8.00;;;;;;;;;;4939827;29;20063;-87
2022/10/12 11:52:00;;;;;;;14.65;8.27;;;;;;;;;;4938989;29;20118;-87
2022/10/12 11:54:35;;;;;;;14.00;7.43;;;;;;;;;;4939725;29;20036;-87
2022/10/12 11:57:07;;;;;;;17.15;8.30;;;;;;;;;;4940392;29;20036;-87
2022/10/12 11:59:55;;;;;;;14.85;7.68;;;;;;;;;;4939828;29;20042;-88
2022/10/12 12:02:23;;;;;;;16.25;8.30;;;;;;;;;;4939583;29;20122;-87
2022/10/12 12:04:49;;;;;;;18.80;7.97;;;;;;;;;;4940530;29;20032;-88
2022/10/12 12:07:44;;;;;;;14.70;8.18;;;;;;;;;;4940242;29;20034;-88
2022/10/12 12:10:25;;;;;;;14.32;7.78;;;;;;;;;;4940220;29;20109;-88
2022/10/12 12:13:10;;;;;;;16.20;7.78;;;;;;;;;;4938094;29;20039;-87
2022/10/12 12:15:37;;;;;;;17.23;7.60;;;;;;;;;;4940104;29;20039;-87
2022/10/12 12:18:23;;;;;;;12.85;6.55;;;;;;;;;;4939485;29;20389;-88
2022/10/12 12:20:49;;;;;;;16.48;8.32;;;;;;;;;;4938292;29;20047;-88
2022/10/12 12:23:23;;;;;;;16.83;7.20;;;;;;;;;;4939887;29;20071;-87
2022/10/12 12:26:10;;;;;;;14.73;8.32;;;;;;;;;;4938577;29;20051;-87
2022/10/12 12:28:39;;;;;;;14.93;8.20;;;;;;;;;;4940016;29;20126;-88
2022/10/12 12:31:08;;;;;;;14.95;7.57;;;;;;;;;;4939939;29;20047;-88
2022/10/12 12:33:40;;;;;;;12.60;7.97;;;;;;;;;;4940649;29;20378;-88
2022/10/12 12:36:12;;;;;;;13.82;7.72;;;;;;;;;;4939113;29;20118;-88
2022/10/12 12:38:49;;;;;;;20.27;8.57;;;;;;;;;;4941083;29;20419;-88
2022/10/12 12:41:20;;;;;;;16.00;8.30;;;;;;;;;;4939942;29;20095;-87
2022/10/12 12:43:56;;;;;;;13.95;7.78;;;;;;;;;;4940479;29;20064;-87
2022/10/12 12:46:23;;;;;;;12.43;7.38;;;;;;;;;;4940724;29;20482;-88
2022/10/12 12:48:48;;;;;;;12.27;7.85;;;;;;;;;;4938871;29;20028;-88
2022/10/12 12:51:23;;;;;;;14.85;8.27;;;;;;;;;;4938883;29;20042;-87
2022/10/12 12:53:57;;;;;;;14.02;7.65;;;;;;;;;;4940891;29;20039;-87
2022/10/12 12:56:41;;;;;;;15.32;7.45;;;;;;;;;;4940021;29;20040;-89
2022/10/12 12:59:26;;;;;;;;;;;;;;;;;;4941021;29;20043;-88
2022/10/12 13:01:55;;;;;;;18.27;6.82;;;;;;;;;;4909947;29;20446;-88
2022/10/12 13:04:28;;;;;;;18.75;8.75;;;;;;;;;;4939319;29;20477;-87
2022/10/12 13:06:57;;;;;;;26.90;12.43;;;;;;;;;;4941772;29;20508;-87
2022/10/12 13:09:55;;;;;;;17.88;8.95;;;;;;;;;;4941386;29;20043;-88
2022/10/12 13:12:44;;;;;;;15.75;8.60;;;;;;;;;;4927539;29;20044;-89
2022/10/12 13:15:15;;;;;;;12.45;7.40;;;;;;;;;;4928269;29;20047;-89
2022/10/12 13:18:05;;;;;;;18.08;8.85;;;;;;;;;;4940263;29;20047;-88
2022/10/12 13:20:36;;;;;;;16.02;7.57;;;;;;;;;;4940742;29;20131;-89
2022/10/12 13:23:07;;;;;;;14.40;7.45;;;;;;;;;;4940226;29;20056;-88
2022/10/12 13:25:40;;;;;;;14.55;8.45;;;;;;;;;;4939710;29;20040;-88
2022/10/12 13:28:11;;;;;;;15.00;7.97;;;;;;;;;;4938351;29;20580;-88
2022/10/12 13:30:50;;;;;;;14.25;7.53;;;;;;;;;;4939517;29;20119;-87
2022/10/12 13:33:43;;;;;;;18.60;9.05;;;;;;;;;;4938085;29;20134;-88
2022/10/12 13:36:17;;;;;;;14.98;8.48;;;;;;;;;;4940350;29;20035;-88
2022/10/12 13:38:42;;;;;;;18.13;9.35;;;;;;;;;;4943871;29;20084;-88
2022/10/12 13:41:15;;;;;;;14.23;7.60;;;;;;;;;;4945466;29;20051;-88
2022/10/12 13:43:59;;;;;;;15.07;8.73;;;;;;;;;;4943994;29;20039;-87
2022/10/12 13:46:46;;;;;;;16.45;8.10;;;;;;;;;;4943616;29;20027;-88
2022/10/12 13:49:22;;;;;;;16.02;8.27;;;;;;;;;;4942782;29;20050;-88
2022/10/12 13:52:14;;;;;;;16.40;7.53;;;;;;;;;;4943295;29;20042;-88
2022/10/12 13:54:47;;;;;;;19.88;7.78;;;;;;;;;;4943246;29;20068;-87
2022/10/12 13:57:16;;;;;;;;;;;;;;;;;;4942447;29;20091;-87
2022/10/12 13:59:42;;;;;;;12.95;7.30;;;;;;;;;;4943784;29;19937;-88
2022/10/12 14:02:21;;;;;;;17.23;7.75;;;;;;;;;;4942249;29;20481;-87
2022/10/12 14:04:47;;;;;;;14.30;7.22;;;;;;;;;;4942914;29;20043;-87
2022/10/12 14:07:22;;;;;;;16.92;9.07;;;;;;;;;;4945389;29;20020;-88
2022/10/12 14:09:54;;;;;;;13.98;7.43;;;;;;;;;;4944865;29;20051;-88
2022/10/12 14:12:20;;;;;;;10.38;6.60;;;;;;;;;;4945808;29;20067;-88
2022/10/12 14:14:46;;;;;;;15.48;6.65;;;;;;;;;;4944221;29;20404;-88
2022/10/12 14:17:20;;;;;;;14.25;7.22;;;;;;;;;;4944030;29;20111;-89
2022/10/12 14:19:46;;;;;;;14.18;7.10;;;;;;;;;;4944141;29;20040;-88
2022/10/12 14:22:32;;;;;;;16.27;9.60;;;;;;;;;;4943200;29;20044;-88
2022/10/12 14:25:20;;;;;;;13.15;7.82;;;;;;;;;;4929730;29;20502;-89
2022/10/12 14:27:52;;;;;;;12.55;7.35;;;;;;;;;;4933043;29;20039;-89
2022/10/12 14:30:21;;;;;;;13.40;7.63;;;;;;;;;;4933132;29;20039;-89
2022/10/12 14:32:48;;;;;;;12.57;7.63;;;;;;;;;;4928871;29;20027;-90
2022/10/12 14:35:26;;;;;;;16.02;8.20;;;;;;;;;;4930788;29;20039;-89
2022/10/12 14:37:54;;;;;;;14.38;8.07;;;;;;;;;;4933012;29;20066;-90
2022/10/12 14:40:19;;;;;;;14.68;7.90;;;;;;;;;;4928656;29;20024;-89
2022/10/12 14:43:12;;;;;;;14.68;7.63;;;;;;;;;;4929169;29;20042;-89
2022/10/12 14:45:37;;;;;;;14.35;7.13;;;;;;;;;;4929474;29;20046;-89
2022/10/12 14:48:07;;;;;;;15.10;7.47;;;;;;;;;;4930212;29;20114;-89
2022/10/12 14:50:33;;;;;;;16.15;7.15;;;;;;;;;;4930750;29;20416;-89
2022/10/12 14:53:02;;;;;;;18.08;9.13;;;;;;;;;;4926685;29;20115;-89